createdAt,value
2019-04-21T00:00:31.821Z,990.81
2019-04-21T00:01:37.644Z,990.77
2019-04-21T00:02:36.057Z,990.76
2019-04-21T00:03:38.316Z,990.78
2019-04-21T00:04:43.182Z,990.76
2019-04-21T00:05:55.275Z,990.74
2019-04-21T00:06:48.124Z,990.76
2019-04-21T00:07:54.293Z,990.75
2019-04-21T00:08:50.870Z,990.72
2019-04-21T00:09:53.745Z,990.69
2019-04-21T00:10:59.453Z,990.73
2019-04-21T00:11:48.318Z,990.69
2019-04-21T00:12:46.123Z,990.71
2019-04-21T00:13:42.562Z,990.66
2019-04-21T00:14:43.628Z,990.62
2019-04-21T00:15:40.647Z,990.69
2019-04-21T00:16:39.368Z,990.68
2019-04-21T00:17:32.063Z,990.68
2019-04-21T00:18:40.657Z,990.64
2019-04-21T00:19:33.965Z,990.60
2019-04-21T00:20:38.201Z,990.63
2019-04-21T00:21:39.584Z,990.59
2019-04-21T00:22:44.259Z,990.59
2019-04-21T00:23:49.926Z,990.57
2019-04-21T00:24:45.083Z,990.55
2019-04-21T00:25:43.476Z,990.57
2019-04-21T00:26:49.505Z,990.56
2019-04-21T00:27:46.534Z,990.54
2019-04-21T00:29:01.742Z,990.50
2019-04-21T00:29:50.378Z,990.50
2019-04-21T00:30:54.562Z,990.51
2019-04-21T00:31:45.803Z,990.49
2019-04-21T00:32:41.570Z,990.50
2019-04-21T00:33:34.297Z,990.46
2019-04-21T00:34:31.915Z,990.41
2019-04-21T00:35:35.006Z,990.45
2019-04-21T00:36:43.962Z,990.45
2019-04-21T00:37:53.429Z,990.44
2019-04-21T00:38:59.090Z,990.42
2019-04-21T00:40:00.223Z,990.44
2019-04-21T00:40:52.120Z,990.41
2019-04-21T00:41:56.217Z,990.44
2019-04-21T00:42:52.477Z,990.45
2019-04-21T00:43:44.746Z,990.42
2019-04-21T00:44:45.821Z,990.42
2019-04-21T00:45:42.229Z,990.40
2019-04-21T00:46:50.285Z,990.37
2019-04-21T00:47:52.919Z,990.42
2019-04-21T00:48:54.101Z,990.41
2019-04-21T00:49:53.906Z,990.40
2019-04-21T00:51:11.065Z,990.34
2019-04-21T00:52:08.680Z,990.36
2019-04-21T00:53:13.394Z,990.34
2019-04-21T00:53:57.931Z,990.33
2019-04-21T00:54:51.999Z,990.31
2019-04-21T00:55:52.004Z,990.30
2019-04-21T00:56:56.714Z,990.30
2019-04-21T00:58:00.380Z,990.26
2019-04-21T00:58:53.424Z,990.22
2019-04-21T00:59:55.653Z,990.26
2019-04-21T01:00:55.057Z,990.24
2019-04-21T01:01:47.718Z,990.17
2019-04-21T01:02:58.014Z,990.16
2019-04-21T01:03:52.964Z,990.20
2019-04-21T01:05:01.640Z,990.16
2019-04-21T01:05:58.889Z,990.16
2019-04-21T01:06:55.604Z,990.16
2019-04-21T01:07:56.230Z,990.15
2019-04-21T01:08:46.333Z,990.14
2019-04-21T01:09:45.281Z,990.11
2019-04-21T01:10:45.206Z,990.13
2019-04-21T01:11:49.276Z,990.10
2019-04-21T01:13:02.638Z,990.13
2019-04-21T01:14:56.907Z,990.07
2019-04-21T01:15:54.622Z,990.03
2019-04-21T01:16:52.661Z,990.07
2019-04-21T01:17:54.644Z,990.04
2019-04-21T01:18:50.562Z,990.06
2019-04-21T01:19:48.090Z,990.04
2019-04-21T01:20:30.172Z,990.05
2019-04-21T01:21:29.103Z,990.01
2019-04-21T01:22:36.049Z,990.02
2019-04-21T01:23:29.716Z,990.01
2019-04-21T01:24:34.717Z,990.05
2019-04-21T01:25:37.286Z,989.96
2019-04-21T01:26:42.764Z,989.95
2019-04-21T01:27:51.046Z,989.97
2019-04-21T01:28:54.431Z,989.90
2019-04-21T01:29:58.778Z,989.92
2019-04-21T01:30:54.819Z,989.91
2019-04-21T01:31:51.133Z,989.92
2019-04-21T01:32:57.558Z,989.86
2019-04-21T01:33:50.864Z,989.87
2019-04-21T01:34:53.007Z,989.86
2019-04-21T01:35:47.988Z,989.84
2019-04-21T01:36:46.071Z,989.81
2019-04-21T01:38:10.988Z,989.82
2019-04-21T01:38:58.331Z,989.86
2019-04-21T01:39:53.291Z,989.84
2019-04-21T01:40:54.463Z,989.79
2019-04-21T01:41:55.437Z,989.87
2019-04-21T01:42:51.400Z,989.85
2019-04-21T01:43:50.338Z,989.89
2019-04-21T01:44:53.494Z,989.89
2019-04-21T01:45:48.972Z,989.86
2019-04-21T01:46:45.737Z,989.87
2019-04-21T01:47:46.438Z,989.89
2019-04-21T01:48:45.892Z,989.84
2019-04-21T01:49:43.194Z,989.82
2019-04-21T01:50:46.810Z,989.81
2019-04-21T01:52:03.133Z,989.83
2019-04-21T01:52:57.626Z,989.84
2019-04-21T01:53:48.277Z,989.85
2019-04-21T01:54:48.213Z,989.85
2019-04-21T01:55:52.856Z,989.82
2019-04-21T01:56:44.813Z,989.83
2019-04-21T01:57:42.645Z,989.83
2019-04-21T01:58:42.794Z,989.82
2019-04-21T01:59:44.812Z,989.85
2019-04-21T02:00:46.967Z,989.81
2019-04-21T02:01:52.335Z,989.80
2019-04-21T02:02:54.645Z,989.84
2019-04-21T02:03:54.365Z,989.81
2019-04-21T02:05:00.630Z,989.83
2019-04-21T02:05:52.016Z,989.80
2019-04-21T02:06:50.512Z,989.80
2019-04-21T02:07:50.582Z,989.83
2019-04-21T02:08:50.988Z,989.81
2019-04-21T02:09:51.204Z,989.84
2019-04-21T02:10:56.024Z,989.77
2019-04-21T02:11:58.099Z,989.79
2019-04-21T02:12:50.918Z,989.81
2019-04-21T02:13:57.283Z,989.76
2019-04-21T02:15:06.361Z,989.74
2019-04-21T02:15:56.633Z,989.81
2019-04-21T02:16:54.381Z,989.77
2019-04-21T02:17:46.993Z,989.79
2019-04-21T02:18:52.978Z,989.81
2019-04-21T02:19:45.835Z,989.82
2019-04-21T02:20:40.302Z,989.77
2019-04-21T02:21:43.661Z,989.81
2019-04-21T02:23:06.064Z,989.81
2019-04-21T02:23:54.595Z,989.77
2019-04-21T02:24:58.342Z,989.78
2019-04-21T02:25:52.703Z,989.74
2019-04-21T02:26:54.300Z,989.79
2019-04-21T02:27:49.910Z,989.73
2019-04-21T02:28:55.855Z,989.74
2019-04-21T02:29:55.871Z,989.70
2019-04-21T02:31:05.984Z,989.73
2019-04-21T02:32:05.690Z,989.74
2019-04-21T02:33:19.501Z,989.73
2019-04-21T02:33:58.288Z,989.73
2019-04-21T02:36:20.691Z,989.72
2019-04-21T02:38:01.261Z,989.66
2019-04-21T02:40:15.032Z,989.64
2019-04-21T02:43:07.365Z,989.62
2019-04-21T02:45:06.692Z,989.69
2019-04-21T02:46:54.352Z,989.64
2019-04-21T02:50:52.976Z,989.62
2019-04-21T02:52:09.180Z,989.60
2019-04-21T02:53:00.813Z,989.60
2019-04-21T02:56:01.630Z,989.62
2019-04-21T02:57:01.420Z,989.60
2019-04-21T02:58:06.140Z,989.54
2019-04-21T02:59:02.275Z,989.56
2019-04-21T03:02:16.233Z,989.53
2019-04-21T03:03:09.263Z,989.52
2019-04-21T03:04:00.601Z,989.49
2019-04-21T03:05:01.847Z,989.46
2019-04-21T03:05:58.635Z,989.48
2019-04-21T03:07:09.700Z,989.52
2019-04-21T03:08:07.168Z,989.49
2019-04-21T03:08:58.749Z,989.48
2019-04-21T03:10:00.078Z,989.45
2019-04-21T03:10:59.306Z,989.46
2019-04-21T03:12:05.427Z,989.44
2019-04-21T03:14:13.659Z,989.43
2019-04-21T03:15:04.052Z,989.40
2019-04-21T03:16:11.812Z,989.35
2019-04-21T03:16:57.739Z,989.38
2019-04-21T03:18:12.954Z,989.35
2019-04-21T03:19:20.007Z,989.32
2019-04-21T03:20:03.131Z,989.29
2019-04-21T03:22:07.202Z,989.30
2019-04-21T03:25:04.470Z,989.25
2019-04-21T03:26:03.367Z,989.25
2019-04-21T03:27:12.615Z,989.27
2019-04-21T03:28:11.254Z,989.24
2019-04-21T03:30:06.508Z,989.25
2019-04-21T03:31:19.526Z,989.25
2019-04-21T03:35:37.777Z,989.17
2019-04-21T03:36:38.432Z,989.18
2019-04-21T03:38:57.024Z,989.18
2019-04-21T03:39:59.844Z,989.18
2019-04-21T03:40:57.885Z,989.16
2019-04-21T03:43:08.026Z,989.12
2019-04-21T03:43:59.189Z,989.17
2019-04-21T03:47:11.318Z,989.16
2019-04-21T03:48:01.369Z,989.14
2019-04-21T03:49:04.742Z,989.15
2019-04-21T03:50:08.860Z,989.11
2019-04-21T03:50:56.243Z,989.14
2019-04-21T03:52:02.975Z,989.15
2019-04-21T03:55:25.530Z,989.11
2019-04-21T03:56:00.639Z,989.11
2019-04-21T03:57:10.575Z,989.10
2019-04-21T04:00:09.048Z,989.05
2019-04-21T04:01:05.549Z,989.09
2019-04-21T04:02:10.743Z,989.14
2019-04-21T04:03:10.583Z,989.10
2019-04-21T04:04:06.267Z,989.15
2019-04-21T04:05:08.856Z,989.17
2019-04-21T04:07:18.741Z,989.17
2019-04-21T04:08:08.331Z,989.17
2019-04-21T04:10:04.008Z,989.17
2019-04-21T04:11:14.847Z,989.17
2019-04-21T04:11:56.478Z,989.18
2019-04-21T04:12:57.540Z,989.18
2019-04-21T04:14:54.987Z,989.15
2019-04-21T04:16:06.100Z,989.12
2019-04-21T04:17:04.800Z,989.11
2019-04-21T04:17:54.246Z,989.11
2019-04-21T04:19:54.608Z,989.07
2019-04-21T04:21:07.558Z,989.09
2019-04-21T04:22:09.162Z,989.07
2019-04-21T04:24:16.394Z,989.10
2019-04-21T04:25:11.487Z,989.12
2019-04-21T04:25:57.737Z,989.09
2019-04-21T04:27:08.102Z,989.08
2019-04-21T04:29:04.219Z,989.14
2019-04-21T04:29:59.025Z,989.14
2019-04-21T04:32:16.571Z,989.16
2019-04-21T04:32:59.346Z,989.17
2019-04-21T04:34:09.994Z,989.18
2019-04-21T04:35:03.318Z,989.17
2019-04-21T04:37:07.420Z,989.14
2019-04-21T04:37:57.298Z,989.17
2019-04-21T04:39:18.025Z,989.17
2019-04-21T04:40:05.704Z,989.16
2019-04-21T04:42:14.051Z,989.20
2019-04-21T04:42:57.009Z,989.21
2019-04-21T04:44:07.107Z,989.21
2019-04-21T04:45:08.154Z,989.22
2019-04-21T04:45:53.715Z,989.21
2019-04-21T04:47:05.414Z,989.23
2019-04-21T04:47:59.848Z,989.24
2019-04-21T04:49:01.711Z,989.19
2019-04-21T04:49:51.589Z,989.17
2019-04-21T04:54:03.856Z,989.15
2019-04-21T04:56:01.296Z,989.16
2019-04-21T04:57:59.251Z,989.16
2019-04-21T05:00:15.662Z,989.19
2019-04-21T05:01:08.685Z,989.18
2019-04-21T05:02:15.254Z,989.24
2019-04-21T05:02:55.945Z,989.22
2019-04-21T05:03:56.924Z,989.23
2019-04-21T05:05:11.335Z,989.19
2019-04-21T05:06:10.442Z,989.20
2019-04-21T05:06:56.374Z,989.18
2019-04-21T05:08:14.960Z,989.21
2019-04-21T05:09:59.684Z,989.19
2019-04-21T05:11:20.684Z,989.19
2019-04-21T05:12:52.621Z,989.15
2019-04-21T05:14:02.994Z,989.17
2019-04-21T05:15:04.509Z,989.14
2019-04-21T05:16:01.928Z,989.18
2019-04-21T05:17:17.183Z,989.12
2019-04-21T05:19:10.494Z,989.13
2019-04-21T05:20:08.621Z,989.12
2019-04-21T05:21:03.589Z,989.13
2019-04-21T05:21:55.477Z,989.09
2019-04-21T05:23:46.975Z,989.07
2019-04-21T05:24:44.253Z,989.08
2019-04-21T05:25:43.197Z,989.05
2019-04-21T05:26:44.804Z,989.08
2019-04-21T05:27:43.340Z,989.05
2019-04-21T05:28:43.843Z,989.08
2019-04-21T05:29:53.557Z,989.04
2019-04-21T05:30:50.117Z,989.08
2019-04-21T05:31:50.928Z,989.08
2019-04-21T05:32:52.603Z,989.06
2019-04-21T05:33:44.899Z,989.03
2019-04-21T05:34:50.395Z,989.02
2019-04-21T05:35:49.312Z,989.02
2019-04-21T05:36:46.035Z,989.05
2019-04-21T05:37:47.413Z,989.02
2019-04-21T05:38:43.580Z,989.02
2019-04-21T05:39:43.544Z,989.04
2019-04-21T05:40:38.975Z,989.04
2019-04-21T05:41:38.654Z,989.00
2019-04-21T05:42:41.758Z,989.01
2019-04-21T05:43:48.451Z,989.00
2019-04-21T05:45:53.530Z,989.02
2019-04-21T05:47:05.954Z,989.00
2019-04-21T05:47:55.952Z,989.02
2019-04-21T05:48:46.936Z,989.03
2019-04-21T05:49:45.238Z,989.00
2019-04-21T05:50:46.223Z,989.02
2019-04-21T05:51:44.021Z,989.02
2019-04-21T05:52:40.761Z,988.97
2019-04-21T05:53:50.567Z,989.00
2019-04-21T05:55:49.121Z,988.96
2019-04-21T05:56:51.028Z,988.93
2019-04-21T05:57:46.586Z,988.97
2019-04-21T05:58:54.079Z,988.97
2019-04-21T05:59:51.612Z,988.93
2019-04-21T06:01:06.312Z,988.96
2019-04-21T06:02:08.286Z,988.96
2019-04-21T06:02:56.312Z,988.96
2019-04-21T06:03:54.838Z,988.93
2019-04-21T06:05:05.747Z,988.94
2019-04-21T06:06:56.942Z,988.87
2019-04-21T06:07:46.162Z,988.94
2019-04-21T06:08:48.329Z,988.88
2019-04-21T06:10:00.019Z,988.87
2019-04-21T06:11:51.322Z,988.82
2019-04-21T06:12:57.888Z,988.85
2019-04-21T06:13:54.965Z,988.83
2019-04-21T06:16:03.976Z,988.82
2019-04-21T06:17:13.480Z,988.79
2019-04-21T06:17:49.271Z,988.76
2019-04-21T06:18:52.946Z,988.76
2019-04-21T06:20:54.722Z,988.79
2019-04-21T06:21:44.887Z,988.75
2019-04-21T06:22:53.205Z,988.78
2019-04-21T06:23:45.647Z,988.79
2019-04-21T06:25:16.299Z,988.74
2019-04-21T06:26:14.794Z,988.75
2019-04-21T06:27:04.952Z,988.74
2019-04-21T06:27:50.818Z,988.68
2019-04-21T06:29:02.989Z,988.70
2019-04-21T06:29:46.511Z,988.70
2019-04-21T06:30:59.296Z,988.70
2019-04-21T06:32:16.317Z,988.65
2019-04-21T06:32:49.185Z,988.65
2019-04-21T06:33:50.835Z,988.64
2019-04-21T06:35:07.180Z,988.65
2019-04-21T06:36:12.669Z,988.66
2019-04-21T06:37:05.831Z,988.64
2019-04-21T06:38:05.664Z,988.61
2019-04-21T06:39:01.760Z,988.63
2019-04-21T06:40:01.942Z,988.66
2019-04-21T06:40:48.440Z,988.63
2019-04-21T06:41:46.802Z,988.59
2019-04-21T06:42:50.224Z,988.55
2019-04-21T06:43:56.330Z,988.58
2019-04-21T06:44:57.687Z,988.53
2019-04-21T06:45:54.394Z,988.52
2019-04-21T06:46:47.066Z,988.51
2019-04-21T06:47:49.910Z,988.48
2019-04-21T06:48:55.426Z,988.50
2019-04-21T06:49:50.855Z,988.49
2019-04-21T06:50:52.525Z,988.46
2019-04-21T06:51:48.280Z,988.46
2019-04-21T06:52:57.870Z,988.48
2019-04-21T06:53:53.978Z,988.48
2019-04-21T06:54:48.227Z,988.47
2019-04-21T06:55:44.216Z,988.45
2019-04-21T06:56:51.322Z,988.42
2019-04-21T06:57:44.429Z,988.42
2019-04-21T06:58:48.173Z,988.43
2019-04-21T06:59:43.516Z,988.43
2019-04-21T07:00:41.312Z,988.40
2019-04-21T07:01:52.742Z,988.40
2019-04-21T07:03:00.085Z,988.38
2019-04-21T07:04:01.684Z,988.40
2019-04-21T07:05:08.993Z,988.37
2019-04-21T07:05:57.233Z,988.43
2019-04-21T07:06:57.406Z,988.37
2019-04-21T07:07:55.199Z,988.30
2019-04-21T07:08:56.609Z,988.26
2019-04-21T07:09:52.823Z,988.22
2019-04-21T07:10:46.308Z,988.30
2019-04-21T07:11:42.184Z,988.27
2019-04-21T07:12:45.053Z,988.23
2019-04-21T07:13:44.427Z,988.23
2019-04-21T07:14:49.720Z,988.21
2019-04-21T07:15:50.943Z,988.27
2019-04-21T07:16:50.987Z,988.19
2019-04-21T07:17:50.011Z,988.24
2019-04-21T07:18:49.782Z,988.16
2019-04-21T07:19:49.890Z,988.16
2019-04-21T07:20:51.452Z,988.15
2019-04-21T07:21:53.938Z,988.15
2019-04-21T07:22:48.053Z,988.16
2019-04-21T07:23:52.291Z,988.11
2019-04-21T07:24:54.059Z,988.08
2019-04-21T07:25:53.119Z,988.10
2019-04-21T07:26:51.584Z,988.09
2019-04-21T07:27:50.616Z,988.09
2019-04-21T07:28:57.785Z,988.09
2019-04-21T07:30:56.637Z,987.96
2019-04-21T07:31:54.375Z,987.96
2019-04-21T07:34:52.180Z,987.93
2019-04-21T07:35:49.306Z,987.94
2019-04-21T07:36:54.905Z,987.98
2019-04-21T07:37:51.010Z,987.95
2019-04-21T07:38:45.259Z,987.92
2019-04-21T07:39:43.939Z,987.93
2019-04-21T07:40:42.910Z,987.94
2019-04-21T07:41:45.091Z,987.94
2019-04-21T07:42:47.028Z,987.88
2019-04-21T07:43:41.048Z,987.85
2019-04-21T07:44:44.609Z,987.88
2019-04-21T07:45:41.919Z,987.83
2019-04-21T07:46:38.474Z,987.85
2019-04-21T07:47:47.771Z,987.84
2019-04-21T07:48:43.215Z,987.87
2019-04-21T07:49:55.234Z,987.88
2019-04-21T07:50:48.234Z,987.85
2019-04-21T07:51:53.467Z,987.84
2019-04-21T07:52:51.382Z,987.83
2019-04-21T07:53:52.627Z,987.82
2019-04-21T07:54:57.191Z,987.84
2019-04-21T07:56:32.971Z,987.78
2019-04-21T07:57:37.923Z,987.81
2019-04-21T07:58:53.828Z,987.77
2019-04-21T07:59:56.443Z,987.75
2019-04-21T08:01:43.891Z,987.75
2019-04-21T08:02:49.736Z,987.72
2019-04-21T08:03:46.593Z,987.76
2019-04-21T08:05:45.757Z,987.76
2019-04-21T08:06:46.069Z,987.66
2019-04-21T08:07:52.046Z,987.63
2019-04-21T08:08:46.677Z,987.60
2019-04-21T08:09:47.228Z,987.67
2019-04-21T08:10:44.179Z,987.64
2019-04-21T08:11:46.257Z,987.57
2019-04-21T08:12:41.943Z,987.60
2019-04-21T08:13:48.780Z,987.65
2019-04-21T08:14:43.650Z,987.62
2019-04-21T08:15:44.220Z,987.61
2019-04-21T08:16:56.024Z,987.58
2019-04-21T08:18:50.201Z,987.62
2019-04-21T08:19:43.059Z,987.59
2019-04-21T08:20:45.199Z,987.52
2019-04-21T08:21:49.675Z,987.49
2019-04-21T08:22:51.739Z,987.52
2019-04-21T08:23:41.706Z,987.51
2019-04-21T08:24:50.825Z,987.48
2019-04-21T08:25:54.282Z,987.47
2019-04-21T08:26:57.600Z,987.45
2019-04-21T08:27:54.525Z,987.43
2019-04-21T08:28:49.487Z,987.42
2019-04-21T08:29:46.246Z,987.40
2019-04-21T08:30:48.551Z,987.45
2019-04-21T08:31:56.081Z,987.43
2019-04-21T08:32:57.158Z,987.42
2019-04-21T08:33:55.997Z,987.38
2019-04-21T08:34:55.956Z,987.44
2019-04-21T08:36:16.140Z,987.36
2019-04-21T08:36:46.176Z,987.34
2019-04-21T08:37:43.408Z,987.36
2019-04-21T08:38:52.543Z,987.35
2019-04-21T08:39:57.030Z,987.32
2019-04-21T08:40:44.097Z,987.31
2019-04-21T08:41:45.285Z,987.34
2019-04-21T08:42:46.640Z,987.34
2019-04-21T08:43:44.636Z,987.30
2019-04-21T08:44:47.918Z,987.33
2019-04-21T08:45:48.151Z,987.32
2019-04-21T08:46:48.765Z,987.31
2019-04-21T08:47:45.867Z,987.22
2019-04-21T08:48:48.100Z,987.26
2019-04-21T08:49:49.051Z,987.25
2019-04-21T08:50:43.302Z,987.24
2019-04-21T08:51:52.006Z,987.24
2019-04-21T08:54:04.912Z,987.23
2019-04-21T08:54:49.671Z,987.11
2019-04-21T08:55:50.778Z,987.12
2019-04-21T08:56:46.647Z,987.17
2019-04-21T08:58:04.134Z,987.13
2019-04-21T08:58:52.912Z,987.16
2019-04-21T08:59:48.562Z,987.10
2019-04-21T09:00:58.990Z,987.08
2019-04-21T09:01:43.098Z,987.12
2019-04-21T09:02:47.325Z,987.07
2019-04-21T09:03:43.044Z,987.08
2019-04-21T09:04:41.469Z,987.07
2019-04-21T09:05:45.090Z,987.09
2019-04-21T09:07:47.552Z,986.96
2019-04-21T09:09:57.865Z,986.95
2019-04-21T09:10:39.703Z,986.93
2019-04-21T09:11:43.248Z,986.89
2019-04-21T09:12:48.037Z,986.94
2019-04-21T09:13:46.120Z,986.86
2019-04-21T09:14:41.504Z,986.84
2019-04-21T09:15:46.255Z,986.86
2019-04-21T09:16:43.301Z,986.86
2019-04-21T09:17:39.552Z,986.84
2019-04-21T09:18:38.048Z,986.72
2019-04-21T09:19:51.896Z,986.77
2019-04-21T09:20:50.874Z,986.75
2019-04-21T09:21:45.518Z,986.80
2019-04-21T09:22:41.587Z,986.77
2019-04-21T09:23:44.829Z,986.75
2019-04-21T09:24:43.817Z,986.69
2019-04-21T09:25:46.472Z,986.69
2019-04-21T09:26:44.354Z,986.66
2019-04-21T09:27:42.454Z,986.66
2019-04-21T09:28:39.506Z,986.62
2019-04-21T09:29:32.495Z,986.67
2019-04-21T09:30:26.230Z,986.60
2019-04-21T09:31:29.154Z,986.55
2019-04-21T09:32:27.637Z,986.58
2019-04-21T09:33:34.504Z,986.57
2019-04-21T09:34:43.749Z,986.54
2019-04-21T09:35:24.564Z,986.51
2019-04-21T09:36:30.121Z,986.53
2019-04-21T09:37:39.339Z,986.53
2019-04-21T09:38:32.878Z,986.56
2019-04-21T09:39:28.115Z,986.52
2019-04-21T09:40:30.105Z,986.53
2019-04-21T09:41:25.972Z,986.46
2019-04-21T09:42:36.053Z,986.48
2019-04-21T09:43:35.831Z,986.47
2019-04-21T09:44:30.896Z,986.45
2019-04-21T09:45:24.575Z,986.47
2019-04-21T09:46:25.570Z,986.48
2019-04-21T09:47:33.624Z,986.43
2019-04-21T09:48:26.257Z,986.45
2019-04-21T09:49:27.170Z,986.42
2019-04-21T09:51:18.422Z,986.43
2019-04-21T09:52:20.901Z,986.44
2019-04-21T09:53:28.460Z,986.43
2019-04-21T09:54:24.867Z,986.44
2019-04-21T09:55:22.808Z,986.39
2019-04-21T09:56:28.551Z,986.36
2019-04-21T09:57:27.444Z,986.32
2019-04-21T09:58:27.347Z,986.36
2019-04-21T09:59:27.584Z,986.33
2019-04-21T10:00:21.141Z,986.28
2019-04-21T10:01:27.158Z,986.29
2019-04-21T10:02:32.475Z,986.27
2019-04-21T10:03:19.749Z,986.25
2019-04-21T10:04:18.518Z,986.29
2019-04-21T10:05:17.100Z,986.30
2019-04-21T10:06:18.984Z,986.31
2019-04-21T10:07:26.465Z,986.26
2019-04-21T10:08:18.796Z,986.31
2019-04-21T10:09:19.764Z,986.26
2019-04-21T10:10:17.275Z,986.29
2019-04-21T10:11:19.540Z,986.30
2019-04-21T10:12:17.125Z,986.29
2019-04-21T10:13:17.167Z,986.23
2019-04-21T10:14:18.137Z,986.20
2019-04-21T10:15:16.981Z,986.18
2019-04-21T10:16:18.068Z,986.18
2019-04-21T10:17:17.257Z,986.18
2019-04-21T10:18:17.440Z,986.22
2019-04-21T10:19:19.109Z,986.16
2019-04-21T10:20:17.200Z,986.13
2019-04-21T10:21:17.382Z,986.11
2019-04-21T10:22:17.115Z,986.11
2019-04-21T10:23:17.748Z,986.12
2019-04-21T10:24:17.956Z,986.06
2019-04-21T10:25:16.966Z,986.10
2019-04-21T10:26:16.875Z,986.03
2019-04-21T10:27:17.293Z,986.07
2019-04-21T10:28:17.175Z,986.05
2019-04-21T10:29:24.300Z,986.01
2019-04-21T10:30:17.866Z,985.95
2019-04-21T10:31:16.967Z,985.91
2019-04-21T10:32:18.747Z,985.95
2019-04-21T10:33:16.909Z,985.91
2019-04-21T10:34:17.140Z,985.93
2019-04-21T10:35:20.701Z,985.88
2019-04-21T10:36:19.102Z,985.92
2019-04-21T10:37:16.797Z,985.92
2019-04-21T10:38:28.243Z,985.93
2019-04-21T10:39:17.903Z,985.88
2019-04-21T10:40:18.037Z,985.93
2019-04-21T10:41:17.273Z,985.89
2019-04-21T10:42:17.360Z,985.83
2019-04-21T10:43:20.661Z,985.78
2019-04-21T10:44:18.996Z,985.77
2019-04-21T10:45:17.079Z,985.78
2019-04-21T10:46:17.014Z,985.79
2019-04-21T10:47:16.692Z,985.78
2019-04-21T10:48:16.900Z,985.78
2019-04-21T10:49:17.068Z,985.75
2019-04-21T10:51:57.232Z,985.73
2019-04-21T10:52:56.512Z,985.79
2019-04-21T10:53:57.932Z,985.82
2019-04-21T10:55:23.097Z,985.74
2019-04-21T10:56:11.529Z,985.76
2019-04-21T10:56:58.591Z,985.77
2019-04-21T10:57:56.438Z,985.74
2019-04-21T10:58:58.381Z,985.80
2019-04-21T10:59:58.219Z,985.79
2019-04-21T11:00:57.843Z,985.70
2019-04-21T11:01:56.834Z,985.82
2019-04-21T11:02:56.920Z,985.77
2019-04-21T11:03:56.382Z,985.71
2019-04-21T11:04:56.665Z,985.74
2019-04-21T11:05:56.682Z,985.72
2019-04-21T11:07:04.238Z,985.75
2019-04-21T11:08:08.925Z,985.67
2019-04-21T11:08:59.198Z,985.73
2019-04-21T11:09:58.081Z,985.72
2019-04-21T11:10:56.277Z,985.66
2019-04-21T11:11:57.733Z,985.70
2019-04-21T11:12:56.808Z,985.69
2019-04-21T11:13:56.812Z,985.64
2019-04-21T11:14:57.308Z,985.59
2019-04-21T11:15:57.111Z,985.59
2019-04-21T11:16:58.249Z,985.55
2019-04-21T11:17:56.202Z,985.56
2019-04-21T11:18:56.311Z,985.50
2019-04-21T11:19:57.002Z,985.47
2019-04-21T11:20:56.183Z,985.41
2019-04-21T11:21:56.890Z,985.40
2019-04-21T11:22:57.451Z,985.42
2019-04-21T11:23:56.568Z,985.44
2019-04-21T11:24:56.699Z,985.47
2019-04-21T11:25:56.127Z,985.42
2019-04-21T11:26:56.106Z,985.35
2019-04-21T11:27:56.096Z,985.27
2019-04-21T11:28:56.820Z,985.30
2019-04-21T11:29:56.067Z,985.28
2019-04-21T11:30:57.174Z,985.29
2019-04-21T11:31:56.935Z,985.35
2019-04-21T11:32:57.177Z,985.30
2019-04-21T11:33:57.419Z,985.28
2019-04-21T11:34:57.115Z,985.24
2019-04-21T11:35:57.322Z,985.19
2019-04-21T11:36:58.474Z,985.19
2019-04-21T11:38:06.074Z,985.21
2019-04-21T11:39:11.017Z,985.20
2019-04-21T11:40:03.356Z,985.21
2019-04-21T11:40:58.121Z,985.23
2019-04-21T11:41:57.456Z,985.18
2019-04-21T11:42:57.654Z,985.21
2019-04-21T11:43:57.165Z,985.19
2019-04-21T11:44:55.899Z,985.12
2019-04-21T11:45:58.204Z,985.14
2019-04-21T11:46:56.358Z,985.10
2019-04-21T11:48:04.065Z,985.14
2019-04-21T11:48:55.940Z,985.21
2019-04-21T11:49:57.055Z,985.12
2019-04-21T11:50:57.137Z,985.20
2019-04-21T11:51:56.547Z,985.20
2019-04-21T11:52:56.903Z,985.17
2019-04-21T11:53:56.918Z,985.11
2019-04-21T11:54:55.797Z,985.13
2019-04-21T11:55:56.998Z,985.16
2019-04-21T11:56:56.943Z,985.07
2019-04-21T11:57:56.588Z,985.08
2019-04-21T11:58:55.767Z,985.08
2019-04-21T11:59:55.719Z,985.04
2019-04-21T12:00:55.843Z,985.08
2019-04-21T12:01:55.789Z,985.05
2019-04-21T12:02:55.748Z,985.04
2019-04-21T12:03:55.775Z,984.97
2019-04-21T12:04:55.680Z,984.98
2019-04-21T12:05:55.672Z,984.93
2019-04-21T12:06:56.069Z,984.86
2019-04-21T12:07:58.400Z,984.89
2019-04-21T12:08:59.334Z,984.87
2019-04-21T12:09:57.537Z,984.87
2019-04-21T12:10:55.704Z,984.84
2019-04-21T12:11:56.920Z,984.85
2019-04-21T12:12:55.635Z,984.85
2019-04-21T12:13:56.290Z,984.86
2019-04-21T12:14:55.628Z,984.83
2019-04-21T12:15:57.033Z,984.80
2019-04-21T12:16:57.202Z,984.86
2019-04-21T12:17:56.445Z,984.82
2019-04-21T12:18:56.815Z,984.82
2019-04-21T12:19:56.927Z,984.86
2019-04-21T12:20:55.726Z,984.78
2019-04-21T12:22:05.110Z,984.74
2019-04-21T12:22:56.979Z,984.79
2019-04-21T12:23:56.619Z,984.75
2019-04-21T12:24:55.551Z,984.79
2019-04-21T12:25:56.831Z,984.75
2019-04-21T12:26:55.986Z,984.70
2019-04-21T12:27:58.174Z,984.65
2019-04-21T12:28:55.821Z,984.72
2019-04-21T12:29:57.616Z,984.69
2019-04-21T12:30:55.953Z,984.63
2019-04-21T12:31:55.388Z,984.65
2019-04-21T12:32:56.066Z,984.61
2019-04-21T12:33:56.162Z,984.64
2019-04-21T12:34:55.409Z,984.65
2019-04-21T12:35:55.648Z,984.59
2019-04-21T12:36:55.309Z,984.59
2019-04-21T12:37:56.405Z,984.54
2019-04-21T12:38:59.315Z,984.50
2019-04-21T12:39:56.843Z,984.52
2019-04-21T12:40:55.273Z,984.53
2019-04-21T12:41:56.375Z,984.50
2019-04-21T12:42:56.703Z,984.47
2019-04-21T12:43:55.345Z,984.50
2019-04-21T12:44:55.268Z,984.41
2019-04-21T12:45:58.048Z,984.42
2019-04-21T12:46:58.125Z,984.44
2019-04-21T12:47:55.738Z,984.42
2019-04-21T12:48:56.207Z,984.43
2019-04-21T12:49:55.199Z,984.41
2019-04-21T12:50:55.219Z,984.34
2019-04-21T12:51:55.531Z,984.44
2019-04-21T12:52:55.851Z,984.39
2019-04-21T12:54:01.891Z,984.30
2019-04-21T12:54:55.579Z,984.17
2019-04-21T12:55:56.191Z,984.16
2019-04-21T12:56:55.799Z,984.21
2019-04-21T12:57:55.254Z,984.18
2019-04-21T12:58:55.394Z,984.11
2019-04-21T12:59:58.355Z,984.10
2019-04-21T13:00:55.045Z,984.08
2019-04-21T13:01:56.947Z,984.04
2019-04-21T13:02:56.039Z,984.00
2019-04-21T13:03:56.037Z,984.04
2019-04-21T13:04:55.869Z,983.99
2019-04-21T13:05:58.032Z,984.05
2019-04-21T13:06:55.270Z,983.96
2019-04-21T13:07:57.469Z,983.93
2019-04-21T13:09:01.479Z,983.99
2019-04-21T13:09:55.981Z,983.96
2019-04-21T13:10:56.114Z,983.93
2019-04-21T13:11:55.178Z,983.99
2019-04-21T13:12:56.205Z,984.03
2019-04-21T13:13:55.737Z,984.02
2019-04-21T13:14:57.463Z,984.00
2019-04-21T13:15:55.956Z,983.98
2019-04-21T13:16:55.173Z,983.96
2019-04-21T13:17:58.382Z,983.88
2019-04-21T13:18:55.376Z,983.86
2019-04-21T13:19:54.946Z,983.85
2019-04-21T13:20:55.951Z,983.86
2019-04-21T13:21:56.116Z,983.84
2019-04-21T13:22:54.800Z,983.83
2019-04-21T13:23:56.899Z,983.85
2019-04-21T13:24:55.828Z,983.82
2019-04-21T13:25:55.999Z,983.76
2019-04-21T13:26:58.434Z,983.78
2019-04-21T13:27:56.792Z,983.83
2019-04-21T13:28:54.755Z,983.81
2019-04-21T13:29:54.754Z,983.83
2019-04-21T13:30:55.983Z,983.75
2019-04-21T13:31:56.172Z,983.75
2019-04-21T13:32:55.514Z,983.71
2019-04-21T13:33:57.894Z,983.70
2019-04-21T13:34:54.977Z,983.67
2019-04-21T13:35:55.151Z,983.72
2019-04-21T13:36:54.674Z,983.69
2019-04-21T13:37:54.733Z,983.58